sensor_id;sensor_type;location;lat;lon;timestamp;P1;durP1;ratioP1;P2;durP2;ratioP2
13584;SDS011;6863;48.402;9.994;2023-11-19T00:02:20;7.68;;;6.95;;
13584;SDS011;6863;48.402;9.994;2023-11-19T00:04:46;7.70;;;7.00;;
13584;SDS011;6863;48.402;9.994;2023-11-19T00:07:12;7.90;;;7.10;;
13584;SDS011;6863;48.402;9.994;2023-11-19T00:09:41;7.38;;;6.78;;
13584;SDS011;6863;48.402;9.994;2023-11-19T00:12:08;7.25;;;6.63;;
13584;SDS011;6863;48.402;9.994;2023-11-19T00:14:34;7.68;;;6.97;;
13584;SDS011;6863;48.402;9.994;2023-11-19T00:16:59;7.65;;;7.03;;
13584;SDS011;6863;48.402;9.994;2023-11-19T00:19:25;6.97;;;6.40;;
13584;SDS011;6863;48.402;9.994;2023-11-19T00:21:51;7.10;;;6.50;;
13584;SDS011;6863;48.402;9.994;2023-11-19T00:24:17;7.65;;;6.95;;
13584;SDS011;6863;48.402;9.994;2023-11-19T00:26:43;7.45;;;6.78;;
13584;SDS011;6863;48.402;9.994;2023-11-19T00:29:08;7.38;;;6.75;;
13584;SDS011;6863;48.402;9.994;2023-11-19T00:31:34;7.65;;;6.95;;
13584;SDS011;6863;48.402;9.994;2023-11-19T00:34:00;7.03;;;6.43;;
13584;SDS011;6863;48.402;9.994;2023-11-19T00:36:26;7.28;;;6.60;;
13584;SDS011;6863;48.402;9.994;2023-11-19T00:38:53;6.75;;;6.20;;
13584;SDS011;6863;48.402;9.994;2023-11-19T00:41:18;7.45;;;6.75;;
13584;SDS011;6863;48.402;9.994;2023-11-19T00:43:44;7.60;;;6.90;;
13584;SDS011;6863;48.402;9.994;2023-11-19T00:46:09;7.20;;;6.60;;
13584;SDS011;6863;48.402;9.994;2023-11-19T00:48:41;7.07;;;6.47;;
13584;SDS011;6863;48.402;9.994;2023-11-19T00:51:07;7.33;;;6.73;;
13584;SDS011;6863;48.402;9.994;2023-11-19T00:53:33;7.20;;;6.60;;
13584;SDS011;6863;48.402;9.994;2023-11-19T00:56:01;7.20;;;6.60;;
13584;SDS011;6863;48.402;9.994;2023-11-19T00:58:27;7.23;;;6.67;;
13584;SDS011;6863;48.402;9.994;2023-11-19T01:00:52;7.30;;;6.70;;
13584;SDS011;6863;48.402;9.994;2023-11-19T01:03:18;7.93;;;7.22;;
13584;SDS011;6863;48.402;9.994;2023-11-19T01:05:44;7.57;;;6.95;;
13584;SDS011;6863;48.402;9.994;2023-11-19T01:08:11;7.70;;;7.10;;
13584;SDS011;6863;48.402;9.994;2023-11-19T01:10:37;7.10;;;6.60;;
13584;SDS011;6863;48.402;9.994;2023-11-19T01:13:03;7.60;;;7.00;;
13584;SDS011;6863;48.402;9.994;2023-11-19T01:15:30;7.60;;;7.00;;
13584;SDS011;6863;48.402;9.994;2023-11-19T01:17:56;7.10;;;6.50;;
13584;SDS011;6863;48.402;9.994;2023-11-19T01:20:22;7.43;;;6.77;;
13584;SDS011;6863;48.402;9.994;2023-11-19T01:22:49;7.95;;;7.18;;
13584;SDS011;6863;48.402;9.994;2023-11-19T01:25:14;7.75;;;7.05;;
13584;SDS011;6863;48.402;9.994;2023-11-19T01:27:40;7.90;;;7.23;;
13584;SDS011;6863;48.402;9.994;2023-11-19T01:30:06;7.55;;;6.85;;
13584;SDS011;6863;48.402;9.994;2023-11-19T01:32:34;7.85;;;7.25;;
13584;SDS011;6863;48.402;9.994;2023-11-19T01:35:01;7.43;;;6.82;;
13584;SDS011;6863;48.402;9.994;2023-11-19T01:37:27;7.80;;;7.20;;
13584;SDS011;6863;48.402;9.994;2023-11-19T01:39:53;7.63;;;7.03;;
13584;SDS011;6863;48.402;9.994;2023-11-19T01:42:18;8.10;;;7.40;;
13584;SDS011;6863;48.402;9.994;2023-11-19T01:44:54;8.17;;;7.47;;
13584;SDS011;6863;48.402;9.994;2023-11-19T01:47:24;7.97;;;7.27;;
13584;SDS011;6863;48.402;9.994;2023-11-19T01:49:50;8.30;;;7.60;;
13584;SDS011;6863;48.402;9.994;2023-11-19T01:52:16;7.75;;;7.15;;
13584;SDS011;6863;48.402;9.994;2023-11-19T01:54:43;8.07;;;7.38;;
13584;SDS011;6863;48.402;9.994;2023-11-19T01:57:08;8.32;;;7.63;;
13584;SDS011;6863;48.402;9.994;2023-11-19T01:59:34;8.25;;;7.57;;
13584;SDS011;6863;48.402;9.994;2023-11-19T02:02:00;8.70;;;8.00;;
13584;SDS011;6863;48.402;9.994;2023-11-19T02:04:25;8.25;;;7.55;;
13584;SDS011;6863;48.402;9.994;2023-11-19T02:06:51;8.70;;;7.90;;
13584;SDS011;6863;48.402;9.994;2023-11-19T02:09:21;8.40;;;7.70;;
13584;SDS011;6863;48.402;9.994;2023-11-19T02:11:46;8.38;;;7.63;;
13584;SDS011;6863;48.402;9.994;2023-11-19T02:14:17;8.15;;;7.45;;
13584;SDS011;6863;48.402;9.994;2023-11-19T02:16:43;8.05;;;7.45;;
13584;SDS011;6863;48.402;9.994;2023-11-19T02:19:09;8.38;;;7.57;;
13584;SDS011;6863;48.402;9.994;2023-11-19T02:21:36;8.25;;;7.55;;
13584;SDS011;6863;48.402;9.994;2023-11-19T02:24:03;8.50;;;7.80;;
13584;SDS011;6863;48.402;9.994;2023-11-19T02:26:47;8.40;;;7.65;;
13584;SDS011;6863;48.402;9.994;2023-11-19T02:29:24;8.13;;;7.43;;
13584;SDS011;6863;48.402;9.994;2023-11-19T02:31:49;8.43;;;7.63;;
13584;SDS011;6863;48.402;9.994;2023-11-19T02:34:15;8.15;;;7.45;;
13584;SDS011;6863;48.402;9.994;2023-11-19T02:36:41;8.07;;;7.38;;
13584;SDS011;6863;48.402;9.994;2023-11-19T02:39:07;7.93;;;7.23;;
13584;SDS011;6863;48.402;9.994;2023-11-19T02:41:36;7.93;;;7.30;;
13584;SDS011;6863;48.402;9.994;2023-11-19T02:44:01;7.53;;;6.93;;
13584;SDS011;6863;48.402;9.994;2023-11-19T02:46:28;7.45;;;6.85;;
13584;SDS011;6863;48.402;9.994;2023-11-19T02:48:53;7.60;;;7.00;;
13584;SDS011;6863;48.402;9.994;2023-11-19T02:51:19;7.30;;;6.70;;
13584;SDS011;6863;48.402;9.994;2023-11-19T02:53:44;7.40;;;6.80;;
13584;SDS011;6863;48.402;9.994;2023-11-19T02:56:13;7.35;;;6.80;;
13584;SDS011;6863;48.402;9.994;2023-11-19T02:59:00;7.03;;;6.43;;
13584;SDS011;6863;48.402;9.994;2023-11-19T03:01:36;7.32;;;6.65;;
13584;SDS011;6863;48.402;9.994;2023-11-19T03:04:02;6.93;;;6.32;;
13584;SDS011;6863;48.402;9.994;2023-11-19T03:06:29;6.35;;;5.85;;
13584;SDS011;6863;48.402;9.994;2023-11-19T03:08:54;6.50;;;6.00;;
13584;SDS011;6863;48.402;9.994;2023-11-19T03:11:20;6.70;;;6.20;;
13584;SDS011;6863;48.402;9.994;2023-11-19T03:13:46;6.22;;;5.72;;
13584;SDS011;6863;48.402;9.994;2023-11-19T03:16:12;6.63;;;6.13;;
13584;SDS011;6863;48.402;9.994;2023-11-19T03:18:38;6.50;;;6.00;;
13584;SDS011;6863;48.402;9.994;2023-11-19T03:21:07;6.60;;;6.00;;
13584;SDS011;6863;48.402;9.994;2023-11-19T03:23:33;6.22;;;5.72;;
13584;SDS011;6863;48.402;9.994;2023-11-19T03:25:59;6.25;;;5.75;;
13584;SDS011;6863;48.402;9.994;2023-11-19T03:28:28;6.22;;;5.72;;
13584;SDS011;6863;48.402;9.994;2023-11-19T03:30:54;5.88;;;5.47;;
13584;SDS011;6863;48.402;9.994;2023-11-19T03:33:20;5.30;;;4.90;;
13584;SDS011;6863;48.402;9.994;2023-11-19T03:35:45;5.75;;;5.30;;
13584;SDS011;6863;48.402;9.994;2023-11-19T03:38:11;5.70;;;5.20;;
13584;SDS011;6863;48.402;9.994;2023-11-19T03:40:37;5.40;;;5.00;;
13584;SDS011;6863;48.402;9.994;2023-11-19T03:43:04;5.77;;;5.27;;
13584;SDS011;6863;48.402;9.994;2023-11-19T03:45:30;5.95;;;5.45;;
13584;SDS011;6863;48.402;9.994;2023-11-19T03:47:55;6.00;;;5.50;;
13584;SDS011;6863;48.402;9.994;2023-11-19T03:50:21;5.10;;;4.70;;
13584;SDS011;6863;48.402;9.994;2023-11-19T03:52:47;6.13;;;5.63;;
13584;SDS011;6863;48.402;9.994;2023-11-19T03:55:13;5.78;;;5.38;;
13584;SDS011;6863;48.402;9.994;2023-11-19T03:57:38;5.20;;;4.80;;
13584;SDS011;6863;48.402;9.994;2023-11-19T04:00:04;5.82;;;5.32;;
13584;SDS011;6863;48.402;9.994;2023-11-19T04:02:35;5.60;;;5.20;;
13584;SDS011;6863;48.402;9.994;2023-11-19T04:05:01;5.38;;;4.97;;
13584;SDS011;6863;48.402;9.994;2023-11-19T04:07:28;5.07;;;4.68;;
13584;SDS011;6863;48.402;9.994;2023-11-19T04:09:54;5.40;;;5.00;;
13584;SDS011;6863;48.402;9.994;2023-11-19T04:12:19;5.15;;;4.75;;
13584;SDS011;6863;48.402;9.994;2023-11-19T04:14:47;5.68;;;5.18;;
13584;SDS011;6863;48.402;9.994;2023-11-19T04:17:12;5.50;;;5.00;;
13584;SDS011;6863;48.402;9.994;2023-11-19T04:19:38;5.80;;;5.30;;
13584;SDS011;6863;48.402;9.994;2023-11-19T04:22:06;5.90;;;5.43;;
13584;SDS011;6863;48.402;9.994;2023-11-19T04:24:32;6.20;;;5.70;;
13584;SDS011;6863;48.402;9.994;2023-11-19T04:26:58;6.43;;;5.90;;
13584;SDS011;6863;48.402;9.994;2023-11-19T04:29:23;7.13;;;6.53;;
13584;SDS011;6863;48.402;9.994;2023-11-19T04:31:49;6.90;;;6.30;;
13584;SDS011;6863;48.402;9.994;2023-11-19T04:34:15;7.67;;;6.97;;
13584;SDS011;6863;48.402;9.994;2023-11-19T04:36:40;7.57;;;6.93;;
13584;SDS011;6863;48.402;9.994;2023-11-19T04:39:06;8.88;;;8.07;;
13584;SDS011;6863;48.402;9.994;2023-11-19T04:41:37;8.50;;;7.80;;
13584;SDS011;6863;48.402;9.994;2023-11-19T04:44:11;8.88;;;8.07;;
13584;SDS011;6863;48.402;9.994;2023-11-19T04:46:37;9.60;;;8.70;;
13584;SDS011;6863;48.402;9.994;2023-11-19T04:49:02;9.70;;;8.80;;
13584;SDS011;6863;48.402;9.994;2023-11-19T04:51:28;9.40;;;8.60;;
13584;SDS011;6863;48.402;9.994;2023-11-19T04:53:54;9.50;;;8.70;;
13584;SDS011;6863;48.402;9.994;2023-11-19T04:56:19;9.90;;;9.00;;
13584;SDS011;6863;48.402;9.994;2023-11-19T04:58:47;10.57;;;9.68;;
13584;SDS011;6863;48.402;9.994;2023-11-19T05:01:15;10.27;;;9.32;;
13584;SDS011;6863;48.402;9.994;2023-11-19T05:03:42;10.50;;;9.55;;
13584;SDS011;6863;48.402;9.994;2023-11-19T05:08:32;10.40;;;9.50;;
13584;SDS011;6863;48.402;9.994;2023-11-19T05:10:58;10.37;;;9.43;;
13584;SDS011;6863;48.402;9.994;2023-11-19T05:13:24;10.10;;;9.20;;
13584;SDS011;6863;48.402;9.994;2023-11-19T05:15:49;10.00;;;9.10;;
13584;SDS011;6863;48.402;9.994;2023-11-19T05:18:15;9.88;;;9.00;;
13584;SDS011;6863;48.402;9.994;2023-11-19T05:20:41;10.00;;;9.10;;
13584;SDS011;6863;48.402;9.994;2023-11-19T05:23:06;8.87;;;8.17;;
13584;SDS011;6863;48.402;9.994;2023-11-19T05:25:32;8.80;;;8.10;;
13584;SDS011;6863;48.402;9.994;2023-11-19T05:27:57;8.52;;;7.82;;
13584;SDS011;6863;48.402;9.994;2023-11-19T05:30:23;9.67;;;8.77;;
13584;SDS011;6863;48.402;9.994;2023-11-19T05:32:48;9.43;;;8.63;;
13584;SDS011;6863;48.402;9.994;2023-11-19T05:35:14;9.17;;;8.37;;
13584;SDS011;6863;48.402;9.994;2023-11-19T05:37:39;9.52;;;8.73;;
13584;SDS011;6863;48.402;9.994;2023-11-19T05:40:05;9.68;;;8.80;;
13584;SDS011;6863;48.402;9.994;2023-11-19T05:42:39;9.27;;;8.50;;
13584;SDS011;6863;48.402;9.994;2023-11-19T05:45:05;9.38;;;8.57;;
13584;SDS011;6863;48.402;9.994;2023-11-19T05:47:32;9.57;;;8.77;;
13584;SDS011;6863;48.402;9.994;2023-11-19T05:49:58;9.33;;;8.53;;
13584;SDS011;6863;48.402;9.994;2023-11-19T05:52:24;9.93;;;9.10;;
13584;SDS011;6863;48.402;9.994;2023-11-19T05:54:49;9.57;;;8.80;;
13584;SDS011;6863;48.402;9.994;2023-11-19T05:57:17;9.45;;;8.63;;
13584;SDS011;6863;48.402;9.994;2023-11-19T05:59:48;9.13;;;8.32;;
13584;SDS011;6863;48.402;9.994;2023-11-19T06:02:14;8.90;;;8.20;;
13584;SDS011;6863;48.402;9.994;2023-11-19T06:04:40;9.40;;;8.60;;
13584;SDS011;6863;48.402;9.994;2023-11-19T06:07:09;9.30;;;8.40;;
13584;SDS011;6863;48.402;9.994;2023-11-19T06:09:35;8.33;;;7.63;;
13584;SDS011;6863;48.402;9.994;2023-11-19T06:12:00;8.73;;;7.97;;
13584;SDS011;6863;48.402;9.994;2023-11-19T06:14:27;8.50;;;7.70;;
13584;SDS011;6863;48.402;9.994;2023-11-19T06:16:52;8.15;;;7.53;;
13584;SDS011;6863;48.402;9.994;2023-11-19T06:19:18;8.93;;;8.13;;
13584;SDS011;6863;48.402;9.994;2023-11-19T06:21:44;8.40;;;7.70;;
13584;SDS011;6863;48.402;9.994;2023-11-19T06:24:09;8.43;;;7.83;;
13584;SDS011;6863;48.402;9.994;2023-11-19T06:26:35;8.90;;;8.20;;
13584;SDS011;6863;48.402;9.994;2023-11-19T06:29:00;8.67;;;7.97;;
13584;SDS011;6863;48.402;9.994;2023-11-19T06:31:26;8.30;;;7.60;;
13584;SDS011;6863;48.402;9.994;2023-11-19T06:33:51;8.45;;;7.75;;
13584;SDS011;6863;48.402;9.994;2023-11-19T06:36:17;8.13;;;7.43;;
13584;SDS011;6863;48.402;9.994;2023-11-19T06:38:43;7.97;;;7.38;;
13584;SDS011;6863;48.402;9.994;2023-11-19T06:41:08;7.87;;;7.20;;
13584;SDS011;6863;48.402;9.994;2023-11-19T06:43:34;7.87;;;7.27;;
13584;SDS011;6863;48.402;9.994;2023-11-19T06:46:01;7.47;;;6.80;;
13584;SDS011;6863;48.402;9.994;2023-11-19T06:48:39;7.40;;;6.80;;
13584;SDS011;6863;48.402;9.994;2023-11-19T06:51:05;7.20;;;6.60;;
13584;SDS011;6863;48.402;9.994;2023-11-19T06:53:30;7.17;;;6.57;;
13584;SDS011;6863;48.402;9.994;2023-11-19T06:55:56;7.00;;;6.50;;
13584;SDS011;6863;48.402;9.994;2023-11-19T06:58:22;6.93;;;6.32;;
13584;SDS011;6863;48.402;9.994;2023-11-19T07:00:47;7.00;;;6.40;;
13584;SDS011;6863;48.402;9.994;2023-11-19T07:03:14;7.57;;;6.97;;
13584;SDS011;6863;48.402;9.994;2023-11-19T07:05:40;6.97;;;6.38;;
13584;SDS011;6863;48.402;9.994;2023-11-19T07:08:06;7.32;;;6.72;;
13584;SDS011;6863;48.402;9.994;2023-11-19T07:10:35;7.50;;;6.90;;
13584;SDS011;6863;48.402;9.994;2023-11-19T07:13:00;7.00;;;6.50;;
13584;SDS011;6863;48.402;9.994;2023-11-19T07:15:26;7.60;;;7.00;;
13584;SDS011;6863;48.402;9.994;2023-11-19T07:17:51;7.43;;;6.82;;
13584;SDS011;6863;48.402;9.994;2023-11-19T07:20:19;8.27;;;7.57;;
13584;SDS011;6863;48.402;9.994;2023-11-19T07:22:44;8.07;;;7.37;;
13584;SDS011;6863;48.402;9.994;2023-11-19T07:25:13;8.20;;;7.50;;
13584;SDS011;6863;48.402;9.994;2023-11-19T07:27:39;7.77;;;7.17;;
13584;SDS011;6863;48.402;9.994;2023-11-19T07:30:05;9.10;;;8.30;;
13584;SDS011;6863;48.402;9.994;2023-11-19T07:32:32;8.63;;;7.93;;
13584;SDS011;6863;48.402;9.994;2023-11-19T07:34:58;8.70;;;8.00;;
13584;SDS011;6863;48.402;9.994;2023-11-19T07:37:24;9.18;;;8.45;;
13584;SDS011;6863;48.402;9.994;2023-11-19T07:39:50;9.27;;;8.48;;
13584;SDS011;6863;48.402;9.994;2023-11-19T07:42:15;9.40;;;8.60;;
13584;SDS011;6863;48.402;9.994;2023-11-19T07:44:41;8.80;;;8.10;;
13584;SDS011;6863;48.402;9.994;2023-11-19T07:47:08;8.77;;;8.07;;
13584;SDS011;6863;48.402;9.994;2023-11-19T07:49:33;9.40;;;8.60;;
13584;SDS011;6863;48.402;9.994;2023-11-19T07:51:59;9.30;;;8.60;;
13584;SDS011;6863;48.402;9.994;2023-11-19T07:54:25;9.43;;;8.67;;
13584;SDS011;6863;48.402;9.994;2023-11-19T07:56:50;8.70;;;8.00;;
13584;SDS011;6863;48.402;9.994;2023-11-19T07:59:16;8.87;;;8.17;;
13584;SDS011;6863;48.402;9.994;2023-11-19T08:01:42;8.98;;;8.18;;
13584;SDS011;6863;48.402;9.994;2023-11-19T08:04:07;8.27;;;7.57;;
13584;SDS011;6863;48.402;9.994;2023-11-19T08:06:33;8.70;;;8.00;;
13584;SDS011;6863;48.402;9.994;2023-11-19T08:08:59;7.97;;;7.38;;
13584;SDS011;6863;48.402;9.994;2023-11-19T08:11:24;8.85;;;8.15;;
13584;SDS011;6863;48.402;9.994;2023-11-19T08:13:50;8.17;;;7.47;;
13584;SDS011;6863;48.402;9.994;2023-11-19T08:16:15;8.63;;;7.93;;
13584;SDS011;6863;48.402;9.994;2023-11-19T08:18:42;8.85;;;8.05;;
13584;SDS011;6863;48.402;9.994;2023-11-19T08:21:08;8.82;;;8.05;;
13584;SDS011;6863;48.402;9.994;2023-11-19T08:23:34;8.52;;;7.82;;
13584;SDS011;6863;48.402;9.994;2023-11-19T08:26:00;8.80;;;8.00;;
13584;SDS011;6863;48.402;9.994;2023-11-19T08:28:26;8.33;;;7.63;;
13584;SDS011;6863;48.402;9.994;2023-11-19T08:30:52;8.30;;;7.65;;
13584;SDS011;6863;48.402;9.994;2023-11-19T08:33:18;7.82;;;7.22;;
13584;SDS011;6863;48.402;9.994;2023-11-19T08:35:43;7.90;;;7.30;;
13584;SDS011;6863;48.402;9.994;2023-11-19T08:38:10;7.35;;;6.80;;
13584;SDS011;6863;48.402;9.994;2023-11-19T08:40:36;7.50;;;6.90;;
13584;SDS011;6863;48.402;9.994;2023-11-19T08:43:02;7.55;;;6.90;;
13584;SDS011;6863;48.402;9.994;2023-11-19T08:45:27;7.85;;;7.25;;
13584;SDS011;6863;48.402;9.994;2023-11-19T08:47:53;8.00;;;7.30;;
13584;SDS011;6863;48.402;9.994;2023-11-19T08:50:18;8.30;;;7.70;;
13584;SDS011;6863;48.402;9.994;2023-11-19T08:52:44;8.30;;;7.60;;
13584;SDS011;6863;48.402;9.994;2023-11-19T08:55:10;8.07;;;7.47;;
13584;SDS011;6863;48.402;9.994;2023-11-19T08:57:36;8.20;;;7.60;;
13584;SDS011;6863;48.402;9.994;2023-11-19T09:00:02;8.27;;;7.67;;
13584;SDS011;6863;48.402;9.994;2023-11-19T09:02:32;8.47;;;7.80;;
13584;SDS011;6863;48.402;9.994;2023-11-19T09:04:59;8.80;;;8.10;;
13584;SDS011;6863;48.402;9.994;2023-11-19T09:07:24;8.47;;;7.77;;
13584;SDS011;6863;48.402;9.994;2023-11-19T09:09:50;7.93;;;7.33;;
13584;SDS011;6863;48.402;9.994;2023-11-19T09:12:15;7.95;;;7.35;;
13584;SDS011;6863;48.402;9.994;2023-11-19T09:14:41;8.27;;;7.67;;
13584;SDS011;6863;48.402;9.994;2023-11-19T09:17:07;7.83;;;7.27;;
13584;SDS011;6863;48.402;9.994;2023-11-19T09:19:34;7.75;;;7.15;;
13584;SDS011;6863;48.402;9.994;2023-11-19T09:22:00;7.57;;;7.07;;
13584;SDS011;6863;48.402;9.994;2023-11-19T09:24:26;7.67;;;7.07;;
13584;SDS011;6863;48.402;9.994;2023-11-19T09:26:52;7.20;;;6.60;;
13584;SDS011;6863;48.402;9.994;2023-11-19T09:29:19;6.40;;;5.90;;
13584;SDS011;6863;48.402;9.994;2023-11-19T09:31:46;6.03;;;5.53;;
13584;SDS011;6863;48.402;9.994;2023-11-19T09:34:14;5.07;;;4.68;;
13584;SDS011;6863;48.402;9.994;2023-11-19T09:36:40;5.00;;;4.60;;
13584;SDS011;6863;48.402;9.994;2023-11-19T09:39:09;4.18;;;3.88;;
13584;SDS011;6863;48.402;9.994;2023-11-19T09:41:35;3.90;;;3.60;;
13584;SDS011;6863;48.402;9.994;2023-11-19T09:44:01;3.90;;;3.60;;
13584;SDS011;6863;48.402;9.994;2023-11-19T09:46:27;3.83;;;3.53;;
13584;SDS011;6863;48.402;9.994;2023-11-19T09:48:54;3.80;;;3.50;;
13584;SDS011;6863;48.402;9.994;2023-11-19T09:51:24;3.85;;;3.55;;
13584;SDS011;6863;48.402;9.994;2023-11-19T09:53:50;3.90;;;3.60;;
13584;SDS011;6863;48.402;9.994;2023-11-19T09:56:16;3.45;;;3.25;;
13584;SDS011;6863;48.402;9.994;2023-11-19T09:58:42;3.30;;;3.10;;
13584;SDS011;6863;48.402;9.994;2023-11-19T10:01:07;3.45;;;3.15;;
13584;SDS011;6863;48.402;9.994;2023-11-19T10:03:36;3.67;;;3.38;;
13584;SDS011;6863;48.402;9.994;2023-11-19T10:08:31;3.40;;;3.17;;
13584;SDS011;6863;48.402;9.994;2023-11-19T10:10:56;4.00;;;3.70;;
13584;SDS011;6863;48.402;9.994;2023-11-19T10:13:28;3.30;;;3.10;;
13584;SDS011;6863;48.402;9.994;2023-11-19T10:15:55;3.45;;;3.25;;
13584;SDS011;6863;48.402;9.994;2023-11-19T10:18:25;3.70;;;3.40;;
13584;SDS011;6863;48.402;9.994;2023-11-19T10:20:51;2.80;;;2.60;;
13584;SDS011;6863;48.402;9.994;2023-11-19T10:23:17;2.65;;;2.45;;
13584;SDS011;6863;48.402;9.994;2023-11-19T10:25:43;2.60;;;2.50;;
13584;SDS011;6863;48.402;9.994;2023-11-19T10:28:08;2.60;;;2.40;;
13584;SDS011;6863;48.402;9.994;2023-11-19T10:30:34;2.70;;;2.50;;
13584;SDS011;6863;48.402;9.994;2023-11-19T10:35:51;2.10;;;2.00;;
13584;SDS011;6863;48.402;9.994;2023-11-19T10:38:27;2.03;;;1.92;;
13584;SDS011;6863;48.402;9.994;2023-11-19T10:40:53;1.90;;;1.80;;
13584;SDS011;6863;48.402;9.994;2023-11-19T10:43:20;2.10;;;2.00;;
13584;SDS011;6863;48.402;9.994;2023-11-19T10:45:49;2.00;;;1.90;;
13584;SDS011;6863;48.402;9.994;2023-11-19T10:48:15;2.10;;;2.00;;
13584;SDS011;6863;48.402;9.994;2023-11-19T10:50:42;1.95;;;1.85;;
13584;SDS011;6863;48.402;9.994;2023-11-19T10:53:10;1.83;;;1.70;;
13584;SDS011;6863;48.402;9.994;2023-11-19T10:55:38;1.80;;;1.70;;
13584;SDS011;6863;48.402;9.994;2023-11-19T10:58:08;1.83;;;1.73;;
13584;SDS011;6863;48.402;9.994;2023-11-19T11:03:22;1.90;;;1.80;;
13584;SDS011;6863;48.402;9.994;2023-11-19T11:05:50;1.60;;;1.50;;
13584;SDS011;6863;48.402;9.994;2023-11-19T11:08:17;1.73;;;1.63;;
13584;SDS011;6863;48.402;9.994;2023-11-19T11:10:44;1.50;;;1.40;;
13584;SDS011;6863;48.402;9.994;2023-11-19T11:13:13;1.70;;;1.60;;
13584;SDS011;6863;48.402;9.994;2023-11-19T11:15:39;1.50;;;1.40;;
13584;SDS011;6863;48.402;9.994;2023-11-19T11:18:08;1.88;;;1.67;;
13584;SDS011;6863;48.402;9.994;2023-11-19T11:20:34;1.73;;;1.63;;
13584;SDS011;6863;48.402;9.994;2023-11-19T11:25:41;1.80;;;1.70;;
13584;SDS011;6863;48.402;9.994;2023-11-19T11:28:15;1.85;;;1.75;;
13584;SDS011;6863;48.402;9.994;2023-11-19T11:39:34;1.95;;;1.85;;
13584;SDS011;6863;48.402;9.994;2023-11-19T11:47:25;1.92;;;1.83;;
13584;SDS011;6863;48.402;9.994;2023-11-19T11:50:12;2.05;;;1.92;;
13584;SDS011;6863;48.402;9.994;2023-11-19T11:55:27;1.90;;;1.80;;
13584;SDS011;6863;48.402;9.994;2023-11-19T11:57:53;2.03;;;1.90;;
13584;SDS011;6863;48.402;9.994;2023-11-19T12:00:22;2.72;;;2.10;;
13584;SDS011;6863;48.402;9.994;2023-11-19T12:02:56;1.90;;;1.80;;
13584;SDS011;6863;48.402;9.994;2023-11-19T12:05:22;2.20;;;2.10;;
13584;SDS011;6863;48.402;9.994;2023-11-19T12:10:26;1.85;;;1.75;;
13584;SDS011;6863;48.402;9.994;2023-11-19T12:13:04;2.25;;;2.05;;
13584;SDS011;6863;48.402;9.994;2023-11-19T12:15:32;2.20;;;2.10;;
13584;SDS011;6863;48.402;9.994;2023-11-19T12:17:58;2.30;;;2.20;;
13584;SDS011;6863;48.402;9.994;2023-11-19T12:20:24;2.33;;;2.10;;
13584;SDS011;6863;48.402;9.994;2023-11-19T12:22:51;6.43;;;5.50;;
13584;SDS011;6863;48.402;9.994;2023-11-19T12:25:18;1.90;;;1.80;;
13584;SDS011;6863;48.402;9.994;2023-11-19T12:27:45;2.00;;;1.90;;
13584;SDS011;6863;48.402;9.994;2023-11-19T12:30:12;1.63;;;1.52;;
13584;SDS011;6863;48.402;9.994;2023-11-19T12:32:42;1.70;;;1.60;;
13584;SDS011;6863;48.402;9.994;2023-11-19T12:35:09;1.50;;;1.40;;
13584;SDS011;6863;48.402;9.994;2023-11-19T12:37:57;1.40;;;1.40;;
13584;SDS011;6863;48.402;9.994;2023-11-19T12:40:23;1.40;;;1.40;;
13584;SDS011;6863;48.402;9.994;2023-11-19T12:42:49;1.70;;;1.60;;
13584;SDS011;6863;48.402;9.994;2023-11-19T12:45:19;1.60;;;1.50;;
13584;SDS011;6863;48.402;9.994;2023-11-19T12:47:46;1.60;;;1.50;;
13584;SDS011;6863;48.402;9.994;2023-11-19T12:50:14;2.63;;;1.57;;
13584;SDS011;6863;48.402;9.994;2023-11-19T12:52:40;1.60;;;1.50;;
13584;SDS011;6863;48.402;9.994;2023-11-19T12:57:51;1.50;;;1.40;;
13584;SDS011;6863;48.402;9.994;2023-11-19T13:00:18;1.67;;;1.58;;
13584;SDS011;6863;48.402;9.994;2023-11-19T13:02:52;1.52;;;1.42;;
13584;SDS011;6863;48.402;9.994;2023-11-19T13:05:25;1.90;;;1.80;;
13584;SDS011;6863;48.402;9.994;2023-11-19T13:07:58;1.70;;;1.60;;
13584;SDS011;6863;48.402;9.994;2023-11-19T13:10:49;1.55;;;1.45;;
13584;SDS011;6863;48.402;9.994;2023-11-19T13:13:21;1.38;;;1.38;;
13584;SDS011;6863;48.402;9.994;2023-11-19T13:15:47;1.30;;;1.30;;
13584;SDS011;6863;48.402;9.994;2023-11-19T13:18:15;1.53;;;1.43;;
13584;SDS011;6863;48.402;9.994;2023-11-19T13:20:41;1.35;;;1.25;;
13584;SDS011;6863;48.402;9.994;2023-11-19T13:23:07;1.95;;;1.80;;
13584;SDS011;6863;48.402;9.994;2023-11-19T13:25:33;1.75;;;1.50;;
13584;SDS011;6863;48.402;9.994;2023-11-19T13:27:59;1.37;;;1.33;;
13584;SDS011;6863;48.402;9.994;2023-11-19T13:30:24;1.70;;;1.60;;
13584;SDS011;6863;48.402;9.994;2023-11-19T13:32:51;1.90;;;1.80;;
13584;SDS011;6863;48.402;9.994;2023-11-19T13:35:18;1.40;;;1.30;;
13584;SDS011;6863;48.402;9.994;2023-11-19T13:37:46;1.40;;;1.30;;
13584;SDS011;6863;48.402;9.994;2023-11-19T13:40:12;1.55;;;1.38;;
13584;SDS011;6863;48.402;9.994;2023-11-19T13:42:43;1.40;;;1.30;;
13584;SDS011;6863;48.402;9.994;2023-11-19T13:45:10;1.10;;;1.10;;
13584;SDS011;6863;48.402;9.994;2023-11-19T13:47:39;1.25;;;1.23;;
13584;SDS011;6863;48.402;9.994;2023-11-19T13:50:08;1.20;;;1.20;;
13584;SDS011;6863;48.402;9.994;2023-11-19T13:52:40;1.20;;;1.10;;
13584;SDS011;6863;48.402;9.994;2023-11-19T13:55:08;1.10;;;1.10;;
13584;SDS011;6863;48.402;9.994;2023-11-19T13:57:35;1.50;;;1.40;;
13584;SDS011;6863;48.402;9.994;2023-11-19T14:00:05;1.40;;;1.30;;
13584;SDS011;6863;48.402;9.994;2023-11-19T14:02:34;1.08;;;1.08;;
13584;SDS011;6863;48.402;9.994;2023-11-19T14:05:00;1.08;;;1.08;;
13584;SDS011;6863;48.402;9.994;2023-11-19T14:07:26;1.33;;;1.23;;
13584;SDS011;6863;48.402;9.994;2023-11-19T14:09:52;1.10;;;1.10;;
13584;SDS011;6863;48.402;9.994;2023-11-19T14:12:19;0.90;;;0.90;;
13584;SDS011;6863;48.402;9.994;2023-11-19T14:14:44;1.10;;;1.10;;
13584;SDS011;6863;48.402;9.994;2023-11-19T14:17:10;1.00;;;1.00;;
13584;SDS011;6863;48.402;9.994;2023-11-19T14:19:36;1.05;;;0.90;;
13584;SDS011;6863;48.402;9.994;2023-11-19T14:22:03;1.10;;;1.10;;
13584;SDS011;6863;48.402;9.994;2023-11-19T14:24:29;1.10;;;1.00;;
13584;SDS011;6863;48.402;9.994;2023-11-19T14:26:54;1.10;;;1.10;;
13584;SDS011;6863;48.402;9.994;2023-11-19T14:29:23;1.00;;;1.00;;
13584;SDS011;6863;48.402;9.994;2023-11-19T14:31:48;1.57;;;1.47;;
13584;SDS011;6863;48.402;9.994;2023-11-19T14:34:14;1.58;;;1.48;;
13584;SDS011;6863;48.402;9.994;2023-11-19T14:36:39;1.10;;;1.10;;
13584;SDS011;6863;48.402;9.994;2023-11-19T14:39:05;1.10;;;1.10;;
13584;SDS011;6863;48.402;9.994;2023-11-19T14:41:32;1.13;;;1.05;;
13584;SDS011;6863;48.402;9.994;2023-11-19T14:43:57;1.70;;;1.60;;
13584;SDS011;6863;48.402;9.994;2023-11-19T14:46:23;1.13;;;1.13;;
13584;SDS011;6863;48.402;9.994;2023-11-19T14:48:48;1.30;;;1.23;;
13584;SDS011;6863;48.402;9.994;2023-11-19T14:51:14;1.50;;;1.40;;
13584;SDS011;6863;48.402;9.994;2023-11-19T14:53:39;1.77;;;1.67;;
13584;SDS011;6863;48.402;9.994;2023-11-19T14:56:05;1.67;;;1.57;;
13584;SDS011;6863;48.402;9.994;2023-11-19T14:58:35;1.48;;;1.38;;
13584;SDS011;6863;48.402;9.994;2023-11-19T15:01:00;1.20;;;1.20;;
13584;SDS011;6863;48.402;9.994;2023-11-19T15:03:29;1.70;;;1.60;;
13584;SDS011;6863;48.402;9.994;2023-11-19T15:05:55;1.50;;;1.40;;
13584;SDS011;6863;48.402;9.994;2023-11-19T15:08:21;1.70;;;1.40;;
13584;SDS011;6863;48.402;9.994;2023-11-19T15:10:47;1.52;;;1.42;;
13584;SDS011;6863;48.402;9.994;2023-11-19T15:13:12;1.50;;;1.40;;
13584;SDS011;6863;48.402;9.994;2023-11-19T15:15:38;1.33;;;1.30;;
13584;SDS011;6863;48.402;9.994;2023-11-19T15:18:04;1.75;;;1.65;;
13584;SDS011;6863;48.402;9.994;2023-11-19T15:20:30;1.70;;;1.60;;
13584;SDS011;6863;48.402;9.994;2023-11-19T15:22:56;1.60;;;1.50;;
13584;SDS011;6863;48.402;9.994;2023-11-19T15:25:22;2.10;;;2.00;;
13584;SDS011;6863;48.402;9.994;2023-11-19T15:27:48;1.60;;;1.50;;
13584;SDS011;6863;48.402;9.994;2023-11-19T15:30:14;1.67;;;1.58;;
13584;SDS011;6863;48.402;9.994;2023-11-19T15:32:40;1.70;;;1.60;;
13584;SDS011;6863;48.402;9.994;2023-11-19T15:35:07;1.80;;;1.70;;